ADDS METAR Data INFO
IDs: Format: Raw Decoded Include TAF

Data at: 1417 UTC 12 Dec 2017

KFFA 121400Z AUTO 22005KT 10SM CLR 08/05 A2970 RMK AO2 T00810045
KFFA 121340Z AUTO 22006KT 10SM CLR 08/05 A2971 RMK AO2 T00790045
KFFA 121320Z AUTO 22010G14KT 10SM CLR 08/05 A2973 RMK AO2 T00770046
KFFA 121300Z AUTO 22008G14KT 10SM CLR 08/05 A2974 RMK AO2 T00770045
KFFA 121240Z AUTO 21007G15KT 180V260 10SM CLR 08/04 A2973 RMK AO2 T00780044
KFFA 121220Z AUTO 21007KT 10SM CLR 07/04 A2974 RMK AO2 T00700036
KFFA 121200Z AUTO 20006KT 10SM CLR 06/03 A2975 RMK AO2 T00640026
KFFA 121140Z AUTO 21007KT 10SM CLR 06/02 A2976 RMK AO2 T00610020
KFFA 121120Z AUTO 22007KT 10SM CLR 06/02 A2978 RMK AO2 T00590016
KFFA 121100Z AUTO 21006KT 10SM CLR 06/01 A2978 RMK AO2 T00590012
KFFA 121040Z AUTO 22004KT 10SM CLR 06/01 A2979 RMK AO2 T00600011
KFFA 121020Z AUTO 22005KT 10SM CLR 06/01 A2980 RMK AO2 T00560014
KFFA 121000Z AUTO 00000KT 10SM CLR 05/02 A2981 RMK AO2 T00540016
KFFA 120940Z AUTO 00000KT 10SM CLR 06/02 A2981 RMK AO2 T00550021
KFFA 120920Z AUTO 00000KT 10SM CLR 06/02 A2981 RMK AO2 T00550024
KFFA 120900Z AUTO 00000KT 10SM CLR 06/02 A2983 RMK AO2 T00560024
KFFA 120840Z AUTO 23004KT 10SM CLR 06/03 A2985 RMK AO2 T00590031
KFFA 120820Z AUTO 00000KT 10SM CLR 06/04 A2986 RMK AO2 T00590039
KFFA 120800Z AUTO 00000KT 10SM CLR 06/04 A2987 RMK AO2 T00590042
KFFA 120740Z AUTO 00000KT 10SM CLR 06/04 A2988 RMK AO2 T00570038
KFFA 120720Z AUTO 00000KT 10SM CLR 06/03 A2988 RMK AO2 T00580032
KFFA 120700Z AUTO 00000KT 10SM CLR 06/03 A2988 RMK AO2 T00590030
KFFA 120640Z AUTO 00000KT 10SM CLR 06/03 A2989 RMK AO2 T00600031
KFFA 120620Z AUTO 00000KT 10SM CLR 06/03 A2990 RMK AO2 T00600030
KFFA 120600Z AUTO 00000KT 10SM CLR 06/02 A2991 RMK AO2 T00600022
KFFA 120540Z AUTO 00000KT 10SM CLR 06/02 A2993 RMK AO2 T00580022
KFFA 120520Z AUTO 00000KT 10SM CLR 06/02 A2993 RMK AO2 T00550023
KFFA 120500Z AUTO 00000KT 10SM CLR 06/02 A2995 RMK AO2 T00570021
KFFA 120440Z AUTO 00000KT 10SM CLR 06/02 A2996 RMK AO2 T00580016
KFFA 120420Z AUTO 00000KT 10SM CLR 06/01 A2996 RMK AO2 T00550010
KFFA 120400Z AUTO 00000KT 10SM CLR 05/01 A2998 RMK AO2 T00510011
KFFA 120340Z AUTO 00000KT 10SM CLR 05/01 A2998 RMK AO2 T00500005
KFFA 120320Z AUTO 00000KT 10SM CLR 05/00 A2999 RMK AO2 T00531001
KFFA 120300Z AUTO 00000KT 10SM CLR 05/M01 A3001 RMK AO2 T00521006
KFFA 120240Z AUTO 00000KT 10SM CLR 05/M01 A3001 RMK AO2 T00501007
KFFA 120220Z AUTO 00000KT 10SM CLR 05/M01 A3001 RMK AO2 T00491008
KFFA 120200Z AUTO 00000KT 10SM CLR 05/M01 A3001 RMK AO2 T00491011
KFFA 120140Z AUTO 00000KT 10SM CLR 05/M01 A3002 RMK AO2 T00491012
KFFA 120120Z AUTO 00000KT 10SM CLR 05/M01 A3002 RMK AO2 T00471009
KFFA 120100Z AUTO 00000KT 10SM CLR 05/00 A3003 RMK AO2 T00461002
KFFA 120040Z AUTO 00000KT 10SM CLR 05/00 A3003 RMK AO2 T00490000
KFFA 120020Z AUTO 00000KT 10SM CLR 05/00 A3003 RMK AO2 T00500000
KFFA 120000Z AUTO 00000KT 10SM CLR 05/00 A3003 RMK AO2 T00471001
KFFA 112340Z AUTO 00000KT 10SM CLR 04/00 A3003 RMK AO2 T00441001
KFFA 112320Z AUTO 00000KT 10SM CLR 04/00 A3003 RMK AO2 T00420000
KFFA 112300Z AUTO 00000KT 10SM CLR 04/00 A3003 RMK AO2 T00410000
KFFA 112240Z AUTO 00000KT 10SM CLR 04/00 A3003 RMK AO2 T00410000
KFFA 112220Z AUTO 00000KT 10SM CLR 05/00 A3004 RMK AO2 T00460001
KFFA 112200Z AUTO 00000KT 10SM CLR 05/00 A3004 RMK AO2 T00510003
KFFA 112140Z AUTO 00000KT 10SM CLR 06/00 A3003 RMK AO2 T00600003
KFFA 112120Z AUTO 00000KT 10SM CLR 07/00 A3004 RMK AO2 T00700000
KFFA 112100Z AUTO 00000KT 10SM CLR 07/00 A3005 RMK AO2 T00741004
KFFA 112040Z AUTO 00000KT 10SM CLR 08/00 A3005 RMK AO2 T00781002
KFFA 112020Z AUTO 00000KT 10SM CLR 08/M01 A3005 RMK AO2 T00801009
KFFA 112000Z AUTO 00000KT 10SM CLR 08/M01 A3005 RMK AO2 T00821007
KFFA 111940Z AUTO 00000KT 10SM CLR 08/M01 A3005 RMK AO2 T00811010
KFFA 111920Z AUTO 00000KT 10SM CLR 08/M01 A3005 RMK AO2 T00791012
KFFA 111900Z AUTO 00000KT 10SM CLR 08/M01 A3006 RMK AO2 T00781007
KFFA 111840Z AUTO 00000KT 10SM CLR 08/00 A3006 RMK AO2 T00781004
KFFA 111820Z AUTO 00000KT 10SM CLR 08/00 A3006 RMK AO2 T00801002
KFFA 111800Z AUTO 00000KT 10SM CLR 08/00 A3007 RMK AO2 T00761001
KFFA 111740Z AUTO 00000KT 10SM CLR 08/M01 A3008 RMK AO2 T00771006
KFFA 111720Z AUTO 00000KT 10SM CLR 08/00 A3008 RMK AO2 T00761003
KFFA 111700Z AUTO 27004KT 10SM CLR 07/00 A3009 RMK AO2 T00741002
KFFA 111640Z AUTO 00000KT 10SM CLR 07/00 A3010 RMK AO2 T00710000
KFFA 111620Z AUTO 29004KT 10SM CLR 07/00 A3011 RMK AO2 T00681002
KFFA 111600Z AUTO 00000KT 10SM CLR 07/00 A3012 RMK AO2 T00661005
KFFA 111540Z AUTO 00000KT 10SM CLR 06/00 A3012 RMK AO2 T00631003
KFFA 111520Z AUTO 26005KT 10SM CLR 06/00 A3013 RMK AO2 T00611003
KFFA 111500Z AUTO 00000KT 10SM CLR 06/00 A3013 RMK AO2 T00581004
KFFA 111440Z AUTO 00000KT 10SM CLR 06/00 A3013 RMK AO2 T00551005
KFFA 111420Z AUTO 00000KT 10SM CLR 05/M01 A3013 RMK AO2 T00511006
KFFA 111400Z AUTO 26003KT 10SM CLR 05/M01 A3013 RMK AO2 T00461009
KFFA 111340Z AUTO 00000KT 10SM CLR 04/M01 A3013 RMK AO2 T00441011
KFFA 111320Z AUTO 26006KT 10SM CLR 04/M01 A3013 RMK AO2 T00411011
KFFA 111300Z AUTO 26004KT 10SM CLR 04/M01 A3013 RMK AO2 T00401014
KFFA 111240Z AUTO 26005KT 10SM CLR 04/M01 A3013 RMK AO2 T00391013
KFFA 111220Z AUTO 00000KT 10SM CLR 04/M01 A3012 RMK AO2 T00371014
KFFA 111200Z AUTO 25003KT 10SM CLR 04/M01 A3012 RMK AO2 T00371015
KFFA 111140Z AUTO 24005KT 10SM CLR 04/M01 A3011 RMK AO2 T00381015
KFFA 111120Z AUTO 24003KT 10SM CLR 04/M01 A3011 RMK AO2 T00391015
KFFA 111100Z AUTO 25006G15KT 10SM CLR 04/M02 A3011 RMK AO2 T00391018
KFFA 111040Z AUTO 24006KT 10SM CLR 04/M02 A3010 RMK AO2 T00401018
KFFA 111020Z AUTO 24007KT 10SM CLR 04/M02 A3010 RMK AO2 T00401018
KFFA 111000Z AUTO 25009G16KT 10SM CLR 04/M02 A3009 RMK AO2 T00401018
KFFA 110940Z AUTO 24006KT 10SM CLR 04/M02 A3009 RMK AO2 T00401017
KFFA 110920Z AUTO 24006KT 210V280 10SM CLR 04/M01 A3010 RMK AO2 T00391014
KFFA 110900Z AUTO 24008KT 10SM CLR 04/M01 A3010 RMK AO2 T00381012
KFFA 110840Z AUTO 24007KT 200V270 10SM CLR 04/M01 A3010 RMK AO2 T00371012
KFFA 110820Z AUTO 23007KT 10SM CLR 04/M01 A3011 RMK AO2 T00361013
KFFA 110800Z AUTO 24008KT 200V260 10SM CLR 03/M01 A3012 RMK AO2 T00321009
KFFA 110740Z AUTO 23003KT 10SM CLR 03/M01 A3012 RMK AO2 T00301007
KFFA 110720Z AUTO 23006KT 10SM CLR 03/M01 A3013 RMK AO2 T00311009
KFFA 110700Z AUTO 23004KT 10SM CLR 03/M01 A3013 RMK AO2 T00321007
KFFA 110640Z AUTO 23004KT 10SM CLR 03/M01 A3013 RMK AO2 T00341009
KFFA 110620Z AUTO 23003KT 10SM CLR 03/M01 A3013 RMK AO2 T00341009
KFFA 110600Z AUTO 22005KT 10SM CLR 03/M01 A3013 RMK AO2 T00331010
KFFA 110540Z AUTO 22004KT 10SM CLR 03/M01 A3014 RMK AO2 T00331011
KFFA 110520Z AUTO 23005KT 10SM CLR 03/M01 A3015 RMK AO2 T00321013
KFFA 110500Z AUTO 23004KT 10SM CLR 03/M01 A3015 RMK AO2 T00311013
KFFA 110440Z AUTO 23004KT 10SM CLR 03/M01 A3015 RMK AO2 T00311014
KFFA 110420Z AUTO 00000KT 10SM CLR 03/M02 A3015 RMK AO2 T00321016
KFFA 110400Z AUTO 00000KT 10SM CLR 03/M02 A3015 RMK AO2 T00321016
KFFA 110340Z AUTO 00000KT 10SM CLR 03/M02 A3016 RMK AO2 T00321017
KFFA 110320Z AUTO 00000KT 10SM CLR 03/M02 A3016 RMK AO2 T00331017
KFFA 110300Z AUTO 24003KT 10SM CLR 03/M02 A3016 RMK AO2 T00321016
KFFA 110240Z AUTO 00000KT 10SM CLR 03/M01 A3016 RMK AO2 T00321015
KFFA 110220Z AUTO 00000KT 10SM CLR 03/M01 A3016 RMK AO2 T00341015